Time;durP1;ratioP1;P1;durP2;ratioP2;P2;SDS_P1;SDS_P2;PMS_P1;PMS_P2;Temp;Humidity;BMP_temperature;BMP_pressure;BME280_temperature;BME280_humidity;BME280_pressure;Samples;Min_cycle;Max_cycle;Signal;HPM_P1;HPM_P2
2023/07/05 07:00:39;;;;;;;2.10;0.70;;;22.20;99.90;;;;;;5005645;23;20285;-73
2023/07/05 07:03:06;;;;;;;2.33;0.60;;;21.60;99.90;;;;;;4968280;28;20553;-74
2023/07/05 07:05:33;;;;;;;3.72;0.88;;;21.30;99.90;;;;;;4972488;28;20685;-73
2023/07/05 07:08:01;;;;;;;2.33;0.60;;;21.50;99.90;;;;;;4957741;28;20224;-73
2023/07/05 07:10:27;;;;;;;2.00;0.73;;;21.60;99.90;;;;;;4953047;28;20243;-74
2023/07/05 07:12:54;;;;;;;3.67;0.80;;;21.30;99.90;;;;;;4953059;28;20291;-74
2023/07/05 07:15:21;;;;;;;2.08;0.80;;;21.10;99.90;;;;;;4953511;28;20215;-73
2023/07/05 07:17:50;;;;;;;2.70;0.70;;;21.10;99.90;;;;;;4953119;28;20232;-73
2023/07/05 07:20:16;;;;;;;3.88;1.08;;;21.50;99.90;;;;;;4952988;28;20212;-74
2023/07/05 07:22:44;;;;;;;2.30;0.70;;;22.10;99.90;;;;;;4952912;28;20738;-74
2023/07/05 07:25:11;;;;;;;4.43;0.90;;;21.70;99.90;;;;;;4953653;28;20239;-73
2023/07/05 07:27:38;;;;;;;2.13;0.50;;;21.90;99.90;;;;;;4953006;28;20628;-74
2023/07/05 07:30:06;;;;;;;3.67;0.90;;;21.90;99.90;;;;;;4952782;28;20231;-76
2023/07/05 07:32:33;;;;;;;2.03;0.77;;;21.70;99.90;;;;;;4950279;28;20216;-74
2023/07/05 07:35:01;;;;;;;0.68;0.52;;;21.60;99.90;;;;;;4951036;28;20211;-76
2023/07/05 07:37:28;;;;;;;3.58;0.80;;;21.90;99.90;;;;;;4952903;28;20716;-75
2023/07/05 07:39:55;;;;;;;4.45;1.00;;;21.80;99.90;;;;;;4964409;28;20218;-74
2023/07/05 07:42:22;;;;;;;2.17;0.80;;;21.90;99.90;;;;;;4964755;28;20699;-74
2023/07/05 07:44:49;;;;;;;6.05;1.80;;;22.40;99.90;;;;;;4976019;28;20259;-73
2023/07/05 07:47:16;;;;;;;1.00;0.60;;;22.10;99.90;;;;;;4963674;28;20235;-74
2023/07/05 07:49:42;;;;;;;3.63;0.90;;;22.30;99.90;;;;;;4956234;28;20295;-75
2023/07/05 07:52:13;;;;;;;2.90;0.70;;;22.70;99.90;;;;;;4955091;28;20246;-74
2023/07/05 07:54:41;;;;;;;3.67;0.70;;;22.40;99.90;;;;;;4955941;28;20208;-80
2023/07/05 07:57:08;;;;;;;1.70;0.80;;;22.40;99.90;;;;;;4956251;28;20322;-73
2023/07/05 07:59:35;;;;;;;2.67;0.68;;;22.40;99.90;;;;;;4956453;28;20214;-72
2023/07/05 08:02:03;;;;;;;1.27;0.52;;;22.10;99.90;;;;;;4956303;28;20216;-74
2023/07/05 08:04:29;;;;;;;3.22;0.70;;;22.40;99.90;;;;;;4956243;28;20208;-73
2023/07/05 08:06:56;;;;;;;1.52;0.50;;;22.50;99.90;;;;;;4955437;29;20258;-73
2023/07/05 08:09:27;;;;;;;2.88;0.60;;;22.60;99.90;;;;;;4956525;28;20215;-74
2023/07/05 08:11:55;;;;;;;3.55;0.65;;;23.10;99.90;;;;;;4955737;28;20240;-75
2023/07/05 08:14:22;;;;;;;4.88;0.93;;;23.40;99.50;;;;;;4956277;28;20295;-76
2023/07/05 08:16:49;;;;;;;3.47;1.00;;;23.40;99.90;;;;;;4955702;28;20319;-74
2023/07/05 08:19:19;;;;;;;2.85;0.68;;;23.10;99.90;;;;;;4955978;28;20219;-79
2023/07/05 08:21:46;;;;;;;2.38;0.77;;;22.80;99.90;;;;;;4955568;28;20641;-72
2023/07/05 08:24:14;;;;;;;1.65;0.70;;;23.00;99.90;;;;;;4955904;28;20204;-74
2023/07/05 08:26:42;;;;;;;3.25;0.52;;;23.70;99.70;;;;;;4955692;28;20224;-73
2023/07/05 08:29:09;;;;;;;3.75;0.80;;;23.60;99.50;;;;;;4955668;28;20223;-73
2023/07/05 08:31:36;;;;;;;1.52;0.50;;;24.10;99.90;;;;;;4955455;28;20590;-72
2023/07/05 08:34:02;;;;;;;3.42;0.70;;;24.30;99.20;;;;;;4955693;28;20214;-72
2023/07/05 08:36:34;;;;;;;3.63;0.70;;;24.10;99.70;;;;;;4955369;28;20638;-74
2023/07/05 08:39:03;;;;;;;3.47;0.80;;;23.90;99.60;;;;;;4955515;28;20683;-72
2023/07/05 08:41:48;;;;;;;4.85;0.70;;;23.80;99.60;;;;;;4955769;28;20204;-74
2023/07/05 08:44:21;;;;;;;2.60;0.68;;;23.70;99.20;;;;;;4955314;28;20207;-74
2023/07/05 08:46:55;;;;;;;2.58;0.70;;;23.70;98.40;;;;;;4952466;29;20228;-74
2023/07/05 08:49:24;;;;;;;4.85;1.05;;;23.20;99.40;;;;;;4955023;28;20215;-74
2023/07/05 08:51:52;;;;;;;1.55;0.63;;;23.40;98.90;;;;;;4953489;28;20258;-76
2023/07/05 08:54:19;;;;;;;3.53;0.70;;;23.20;99.20;;;;;;4954485;28;20212;-74
2023/07/05 08:56:50;;;;;;;1.90;0.47;;;22.90;99.40;;;;;;4955724;28;20694;-74
2023/07/05 08:59:26;;;;;;;2.67;0.80;;;23.20;99.50;;;;;;4953808;29;20222;-74
2023/07/05 09:01:56;;;;;;;1.45;0.70;;;23.50;99.40;;;;;;4956525;28;20216;-73
2023/07/05 09:04:27;;;;;;;3.05;0.68;;;23.60;98.80;;;;;;4956853;28;20211;-73
2023/07/05 09:06:59;;;;;;;2.63;0.70;;;23.10;98.90;;;;;;4956629;28;20228;-73
2023/07/05 09:09:43;;;;;;;4.47;0.75;;;23.00;99.90;;;;;;4957117;28;20299;-73
2023/07/05 09:12:19;;;;;;;2.28;0.60;;;23.20;99.20;;;;;;4956723;28;20713;-73
2023/07/05 09:15:12;;;;;;;1.77;0.70;;;23.20;99.30;;;;;;4956590;28;20214;-73
2023/07/05 09:17:51;;;;;;;2.33;0.60;;;23.00;99.20;;;;;;4956498;28;20224;-73
2023/07/05 09:20:37;;;;;;;3.90;0.73;;;22.80;99.10;;;;;;4956792;28;20207;-74
2023/07/05 09:23:07;;;;;;;2.83;0.60;;;23.10;99.50;;;;;;4956749;28;20546;-73
2023/07/05 09:25:36;;;;;;;1.45;0.55;;;23.30;98.50;;;;;;4956679;28;20212;-73
2023/07/05 09:28:14;;;;;;;3.17;0.70;;;23.90;98.60;;;;;;4956760;28;20243;-71
2023/07/05 09:30:41;;;;;;;1.80;0.60;;;24.60;98.00;;;;;;4956373;28;20238;-71
2023/07/05 09:33:13;;;;;;;1.83;0.63;;;24.90;97.30;;;;;;4956153;28;20218;-72
2023/07/05 09:35:43;;;;;;;2.67;0.60;;;25.00;97.30;;;;;;4956159;28;20214;-72
2023/07/05 09:38:13;;;;;;;1.77;0.50;;;24.60;97.40;;;;;;4956225;28;20228;-72
2023/07/05 09:40:46;;;;;;;2.55;0.80;;;24.30;97.60;;;;;;4956063;28;20703;-72
2023/07/05 09:43:30;;;;;;;2.53;0.88;;;23.80;97.90;;;;;;4956151;28;20204;-72
2023/07/05 09:46:00;;;;;;;4.63;0.63;;;23.90;98.60;;;;;;4956111;28;20212;-72
2023/07/05 09:48:30;;;;;;;1.85;0.80;;;23.40;99.20;;;;;;4956173;28;20234;-71
2023/07/05 09:51:03;;;;;;;5.07;1.10;;;23.20;99.20;;;;;;4956338;28;20238;-72
2023/07/05 09:53:40;;;;;;;6.55;0.70;;;22.90;99.70;;;;;;4956194;28;20215;-72
2023/07/05 09:56:10;;;;;;;3.67;0.75;;;23.20;99.60;;;;;;4956013;28;20214;-71
2023/07/05 09:58:40;;;;;;;3.55;0.88;;;23.00;99.00;;;;;;4955858;28;20243;-72
2023/07/05 10:01:13;;;;;;;3.08;1.10;;;22.80;99.90;;;;;;4955735;28;20223;-72
2023/07/05 10:03:52;;;;;;;2.80;0.75;;;22.50;99.60;;;;;;4955695;28;20204;-72
2023/07/05 10:06:20;;;;;;;1.98;0.65;;;22.60;99.90;;;;;;4955647;28;20207;-72
2023/07/05 10:08:51;;;;;;;3.75;0.60;;;22.80;99.30;;;;;;4955776;28;20216;-71
2023/07/05 10:11:23;;;;;;;4.68;0.70;;;22.60;99.70;;;;;;4955376;28;20694;-72
2023/07/05 10:14:04;;;;;;;2.80;0.93;;;22.20;99.80;;;;;;4956019;28;20549;-72
2023/07/05 10:16:46;;;;;;;2.28;0.63;;;22.20;99.90;;;;;;4955422;28;20210;-71
2023/07/05 10:19:24;;;;;;;3.92;0.77;;;22.10;99.90;;;;;;4955593;28;20667;-72
2023/07/05 10:21:54;;;;;;;2.22;0.90;;;22.20;99.90;;;;;;4955553;28;20235;-71
2023/07/05 10:24:21;;;;;;;3.13;0.95;;;22.20;99.90;;;;;;4955650;28;20218;-72
2023/07/05 10:26:52;;;;;;;2.15;0.60;;;22.20;99.70;;;;;;4955493;28;20319;-72
2023/07/05 10:29:24;;;;;;;2.25;0.70;;;22.40;99.90;;;;;;4955494;28;20211;-72
2023/07/05 10:31:57;;;;;;;2.33;0.73;;;22.60;98.50;;;;;;4955139;28;20239;-72
2023/07/05 10:34:26;;;;;;;2.60;0.73;;;22.60;99.50;;;;;;4955140;28;20241;-72
2023/07/05 10:36:53;;;;;;;3.17;0.95;;;22.60;99.90;;;;;;4955064;28;20224;-71
2023/07/05 10:39:23;;;;;;;1.77;0.80;;;22.50;98.90;;;;;;4955318;28;20208;-71
2023/07/05 10:41:53;;;;;;;1.20;0.60;;;22.50;99.60;;;;;;4955131;28;20328;-72
2023/07/05 10:44:27;;;;;;;3.80;1.02;;;22.50;99.60;;;;;;4954916;28;20210;-72
2023/07/05 10:46:56;;;;;;;2.30;0.60;;;22.50;99.90;;;;;;4954681;28;20234;-72
2023/07/05 10:49:24;;;;;;;2.60;0.73;;;22.60;99.90;;;;;;4955350;28;20219;-72
2023/07/05 10:51:53;;;;;;;5.95;0.80;;;22.70;99.90;;;;;;4955039;28;20232;-72
2023/07/05 10:54:28;;;;;;;1.25;0.55;;;22.90;99.90;;;;;;4955010;28;20666;-72
2023/07/05 10:56:56;;;;;;;1.00;0.60;;;22.70;99.90;;;;;;4954911;28;20235;-71
2023/07/05 10:59:31;;;;;;;1.50;0.60;;;22.50;99.90;;;;;;4954496;28;20208;-71
2023/07/05 11:02:02;;;;;;;4.38;0.77;;;22.20;99.90;;;;;;4952450;28;20207;-72
2023/07/05 11:04:32;;;;;;;3.45;0.55;;;22.00;99.30;;;;;;4940315;29;20204;-71
2023/07/05 11:07:07;;;;;;;2.60;0.75;;;21.70;99.10;;;;;;4940808;29;20239;-71
2023/07/05 11:09:35;;;;;;;1.13;0.50;;;21.30;99.80;;;;;;4938643;29;20212;-72
2023/07/05 11:12:05;;;;;;;2.80;0.85;;;21.60;99.90;;;;;;4944373;28;20236;-72
2023/07/05 11:14:33;;;;;;;2.08;0.55;;;21.90;99.80;;;;;;4950716;29;20290;-72
2023/07/05 11:17:00;;;;;;;2.72;0.93;;;22.20;99.20;;;;;;4951396;28;20232;-71
2023/07/05 11:19:29;;;;;;;2.13;0.60;;;22.50;98.60;;;;;;4947686;28;20208;-71
2023/07/05 11:21:57;;;;;;;2.47;0.60;;;22.60;98.10;;;;;;4945012;29;20212;-72
2023/07/05 11:24:44;;;;;;;3.17;0.77;;;22.70;98.10;;;;;;4955572;29;20682;-71
2023/07/05 11:27:47;;;;;;;2.65;0.90;;;22.20;99.90;;;;;;4952778;28;20230;-72
2023/07/05 11:30:43;;;;;;;3.90;0.63;;;22.40;99.90;;;;;;4953076;28;20660;-73
2023/07/05 11:33:20;;;;;;;1.15;0.43;;;22.90;99.90;;;;;;4947866;29;20236;-72
2023/07/05 11:35:49;;;;;;;1.92;0.82;;;23.00;99.90;;;;;;4951257;28;20211;-72
2023/07/05 11:38:55;;;;;;;2.40;0.75;;;23.00;99.90;;;;;;4944774;28;20703;-72
2023/07/05 11:41:28;;;;;;;1.00;0.60;;;22.80;99.90;;;;;;4916436;29;20205;-72
2023/07/05 11:43:56;;;;;;;3.05;0.60;;;22.90;99.90;;;;;;4915111;29;20217;-72
2023/07/05 11:46:42;;;;;;;1.92;0.70;;;22.70;99.90;;;;;;4935639;28;20204;-72
2023/07/05 11:49:30;;;;;;;0.82;0.63;;;22.40;99.90;;;;;;4952271;28;20572;-73
2023/07/05 11:52:06;;;;;;;2.55;0.50;;;22.40;99.90;;;;;;4954481;28;20241;-73
2023/07/05 11:54:40;;;;;;;1.50;0.63;;;22.70;99.90;;;;;;4951211;28;20239;-72
2023/07/05 11:57:11;;;;;;;2.03;0.60;;;22.90;99.90;;;;;;4957483;28;20250;-72
2023/07/05 11:59:43;;;;;;;1.10;0.63;;;23.10;99.90;;;;;;4951032;28;20216;-72
2023/07/05 12:02:32;;;;;;;1.58;0.63;;;23.20;99.90;;;;;;4956383;28;20208;-72
2023/07/05 12:05:03;;;;;;;6.80;0.75;;;23.20;99.90;;;;;;4953878;29;20208;-72
2023/07/05 12:07:31;;;;;;;2.58;0.70;;;23.30;99.90;;;;;;4953927;28;20231;-72
2023/07/05 12:09:59;;;;;;;2.08;0.75;;;22.90;99.90;;;;;;4951921;28;20214;-72
2023/07/05 12:12:25;;;;;;;3.63;0.70;;;22.60;99.90;;;;;;4951019;28;20243;-73
2023/07/05 12:14:52;;;;;;;2.08;0.70;;;21.90;99.90;;;;;;4939036;29;20246;-72
2023/07/05 12:17:26;;;;;;;3.45;0.95;;;21.60;99.90;;;;;;4952227;29;20230;-72
2023/07/05 12:19:53;;;;;;;2.95;0.82;;;21.80;99.90;;;;;;4950691;29;20234;-72
2023/07/05 12:22:25;;;;;;;2.22;0.90;;;21.60;99.90;;;;;;4942515;29;20215;-72
2023/07/05 12:24:54;;;;;;;1.38;0.80;;;21.50;99.90;;;;;;4954469;28;20282;-71
2023/07/05 12:27:24;;;;;;;2.85;0.70;;;21.40;99.90;;;;;;4948902;28;20232;-72
2023/07/05 12:29:51;;;;;;;2.03;0.82;;;21.60;99.90;;;;;;4951295;28;20277;-72
2023/07/05 12:32:24;;;;;;;3.00;1.25;;;21.70;99.90;;;;;;4948102;28;20232;-72
2023/07/05 12:35:15;;;;;;;1.70;0.98;;;21.70;99.90;;;;;;4940964;29;20559;-71
2023/07/05 12:37:42;;;;;;;1.73;0.80;;;21.80;99.90;;;;;;4943631;29;20225;-73
2023/07/05 12:40:14;;;;;;;2.13;1.17;;;21.90;99.90;;;;;;4942372;28;20214;-72
2023/07/05 12:42:49;;;;;;;2.08;0.85;;;22.00;99.90;;;;;;4942827;29;20208;-72
2023/07/05 12:45:18;;;;;;;1.60;0.55;;;22.10;99.90;;;;;;4947006;28;20213;-73
2023/07/05 12:47:46;;;;;;;1.92;0.85;;;22.30;99.90;;;;;;4951516;28;20235;-72
2023/07/05 12:50:19;;;;;;;3.22;0.80;;;22.40;99.90;;;;;;4949696;28;20659;-73
2023/07/05 12:52:57;;;;;;;3.47;0.82;;;22.50;99.90;;;;;;4952152;29;20231;-73
2023/07/05 12:55:25;;;;;;;3.08;0.65;;;22.50;99.90;;;;;;4946564;28;20211;-72
2023/07/05 12:57:54;;;;;;;2.33;0.82;;;22.70;99.90;;;;;;4955194;29;20228;-72
2023/07/05 13:00:21;;;;;;;2.10;0.70;;;22.80;99.90;;;;;;4965359;23;20313;-67
2023/07/05 13:02:50;;;;;;;3.10;0.70;;;22.60;99.90;;;;;;4974661;28;20242;-67
2023/07/05 13:05:17;;;;;;;1.63;0.93;;;22.80;99.90;;;;;;4961080;28;20558;-69
2023/07/05 13:07:45;;;;;;;2.42;0.90;;;22.50;99.90;;;;;;4955670;28;20227;-69
2023/07/05 13:10:12;;;;;;;1.55;0.75;;;22.40;99.90;;;;;;4950803;28;20205;-69
2023/07/05 13:12:48;;;;;;;2.75;0.80;;;22.60;99.90;;;;;;4953450;28;20240;-68
2023/07/05 13:15:15;;;;;;;1.60;0.90;;;22.80;99.90;;;;;;4946803;29;20212;-68
2023/07/05 13:17:42;;;;;;;3.42;0.60;;;22.70;99.90;;;;;;4943439;28;20265;-68
2023/07/05 13:20:19;;;;;;;1.33;0.85;;;22.70;99.90;;;;;;4941686;29;20209;-68
2023/07/05 13:22:51;;;;;;;3.15;0.80;;;22.80;99.90;;;;;;4951461;28;20211;-68
2023/07/05 13:25:29;;;;;;;2.03;0.80;;;22.60;99.90;;;;;;4944758;29;20211;-68
2023/07/05 13:27:58;;;;;;;6.18;0.98;;;22.60;99.90;;;;;;4946793;28;20235;-68
2023/07/05 13:30:27;;;;;;;1.73;0.75;;;22.60;99.90;;;;;;4943501;28;20595;-69
2023/07/05 13:32:56;;;;;;;5.00;0.75;;;22.70;99.90;;;;;;4944471;28;20244;-68
2023/07/05 13:35:28;;;;;;;2.90;0.65;;;22.70;99.90;;;;;;4954600;29;20678;-68
2023/07/05 13:37:55;;;;;;;2.13;0.77;;;22.80;99.90;;;;;;4942489;29;20235;-68
2023/07/05 13:40:24;;;;;;;4.95;1.00;;;22.70;99.90;;;;;;4953419;28;20302;-68
2023/07/05 13:42:53;;;;;;;2.78;0.80;;;22.50;99.90;;;;;;4944351;28;20579;-68
2023/07/05 13:45:23;;;;;;;2.25;0.93;;;22.30;99.90;;;;;;4950108;28;20204;-68
2023/07/05 13:47:50;;;;;;;1.30;0.65;;;22.00;99.90;;;;;;4946201;28;20232;-68
2023/07/05 13:50:17;;;;;;;1.52;0.70;;;21.90;99.90;;;;;;4951642;28;20211;-67
2023/07/05 13:52:47;;;;;;;6.10;1.02;;;21.10;99.90;;;;;;4952055;28;20228;-68
2023/07/05 13:55:19;;;;;;;1.80;0.77;;;20.00;99.90;;;;;;4949189;28;20205;-67
2023/07/05 13:57:56;;;;;;;1.55;0.65;;;19.10;99.90;;;;;;4946538;29;20243;-67
2023/07/05 14:00:26;;;;;;;2.05;0.63;;;18.50;99.90;;;;;;4946323;28;20243;-67
2023/07/05 14:02:54;;;;;;;1.65;0.80;;;18.10;99.90;;;;;;4944416;28;20302;-68
2023/07/05 14:05:23;;;;;;;1.13;0.73;;;18.20;99.90;;;;;;4944805;28;20675;-68
2023/07/05 14:07:51;;;;;;;1.13;0.80;;;18.30;99.90;;;;;;4946181;28;20279;-67
2023/07/05 14:10:18;;;;;;;1.97;0.90;;;18.10;99.90;;;;;;4946055;28;20206;-69
2023/07/05 14:12:45;;;;;;;1.30;0.80;;;17.90;99.90;;;;;;4933775;29;20816;-69
2023/07/05 14:15:30;;;;;;;1.47;1.00;;;17.90;99.90;;;;;;4942478;29;20279;-67
2023/07/05 14:17:57;;;;;;;1.58;0.50;;;17.90;99.90;;;;;;4951371;28;20312;-67
2023/07/05 14:20:25;;;;;;;1.97;0.90;;;18.10;99.90;;;;;;4942346;29;20200;-67
2023/07/05 14:22:53;;;;;;;1.47;0.70;;;18.20;99.90;;;;;;4949355;28;20302;-67
2023/07/05 14:25:22;;;;;;;1.90;0.80;;;18.40;99.90;;;;;;4943232;29;20674;-67
2023/07/05 14:27:49;;;;;;;3.70;1.10;;;18.80;99.90;;;;;;4949984;28;20231;-67
2023/07/05 14:30:16;;;;;;;1.27;0.67;;;19.10;99.90;;;;;;4947275;29;20219;-68
2023/07/05 14:32:44;;;;;;;1.33;0.65;;;19.30;99.90;;;;;;4946678;28;20232;-68
2023/07/05 14:35:15;;;;;;;2.17;0.88;;;19.50;99.90;;;;;;4946270;28;20212;-69
2023/07/05 14:37:46;;;;;;;1.95;0.60;;;19.60;99.90;;;;;;4947529;28;20710;-67
2023/07/05 14:40:15;;;;;;;1.53;0.70;;;19.40;99.90;;;;;;4949873;29;20262;-67
2023/07/05 14:42:43;;;;;;;1.58;0.50;;;19.20;99.90;;;;;;4949512;28;20677;-68
2023/07/05 14:45:17;;;;;;;1.25;0.70;;;19.30;99.90;;;;;;4943373;28;20208;-68
2023/07/05 14:47:49;;;;;;;1.35;0.68;;;19.30;99.90;;;;;;4945079;28;20708;-66
2023/07/05 14:50:16;;;;;;;1.60;0.68;;;19.60;99.90;;;;;;4944003;29;20214;-67
2023/07/05 14:52:44;;;;;;;1.17;0.50;;;19.80;99.90;;;;;;4944777;29;20228;-67
2023/07/05 14:55:15;;;;;;;1.42;0.80;;;19.70;99.90;;;;;;4952732;28;20208;-66
2023/07/05 14:57:42;;;;;;;2.40;0.80;;;19.70;99.90;;;;;;4944143;29;20224;-66
2023/07/05 15:00:10;;;;;;;1.17;0.65;;;19.70;99.90;;;;;;4950503;28;20223;-66
2023/07/05 15:02:38;;;;;;;0.88;0.55;;;19.80;99.90;;;;;;4944228;29;20204;-66
2023/07/05 15:05:05;;;;;;;1.50;0.70;;;20.00;99.90;;;;;;4953499;28;20216;-67
2023/07/05 15:07:32;;;;;;;1.52;0.60;;;19.90;99.90;;;;;;4953227;28;20231;-66
2023/07/05 15:09:59;;;;;;;1.55;1.10;;;19.80;99.90;;;;;;4953674;28;20208;-66
2023/07/05 15:12:27;;;;;;;1.40;0.80;;;19.70;99.90;;;;;;4952832;28;20204;-68
2023/07/05 15:14:55;;;;;;;2.45;0.95;;;19.70;99.90;;;;;;4953558;28;20689;-67
2023/07/05 15:17:22;;;;;;;1.85;0.82;;;20.00;99.90;;;;;;4953177;28;20223;-67
2023/07/05 15:19:51;;;;;;;2.42;0.80;;;20.20;99.90;;;;;;4953678;28;20271;-66
2023/07/05 15:22:18;;;;;;;1.98;0.80;;;20.10;99.90;;;;;;4953794;28;20211;-66
2023/07/05 15:24:45;;;;;;;3.33;0.90;;;20.30;99.90;;;;;;4953966;29;20208;-66
2023/07/05 15:27:12;;;;;;;2.75;1.02;;;20.40;99.90;;;;;;4954029;28;20228;-67
2023/07/05 15:29:40;;;;;;;4.70;0.90;;;20.30;99.90;;;;;;4953680;28;20208;-66
2023/07/05 15:32:08;;;;;;;1.83;0.80;;;20.30;99.90;;;;;;4954224;28;20216;-67
2023/07/05 15:34:35;;;;;;;4.00;0.85;;;20.30;99.90;;;;;;4953430;28;20243;-67
2023/07/05 15:37:02;;;;;;;2.40;0.63;;;20.20;99.90;;;;;;4953632;28;20710;-68
2023/07/05 15:39:29;;;;;;;2.08;0.70;;;20.20;99.90;;;;;;4953464;28;20208;-70
2023/07/05 15:41:56;;;;;;;3.58;0.70;;;20.10;99.90;;;;;;4954138;28;20215;-68
2023/07/05 15:44:23;;;;;;;1.65;0.70;;;20.10;99.90;;;;;;4954092;28;20295;-68
2023/07/05 15:46:51;;;;;;;3.63;0.57;;;20.00;99.90;;;;;;4953728;28;20560;-69
2023/07/05 15:49:19;;;;;;;4.07;0.73;;;20.10;99.90;;;;;;4953816;28;20208;-68
2023/07/05 15:51:46;;;;;;;2.45;0.45;;;20.20;99.90;;;;;;4950519;28;20210;-68
2023/07/05 15:54:13;;;;;;;0.63;0.43;;;20.30;99.90;;;;;;4953207;29;20232;-69
2023/07/05 15:56:40;;;;;;;1.02;0.80;;;20.40;99.90;;;;;;4949057;28;20310;-67
2023/07/05 15:59:12;;;;;;;0.90;0.68;;;20.40;99.90;;;;;;4944522;28;20235;-68
2023/07/05 16:01:40;;;;;;;2.95;0.60;;;20.60;99.90;;;;;;4955846;28;20218;-68
2023/07/05 16:04:08;;;;;;;0.80;0.50;;;20.60;99.90;;;;;;4956529;28;20299;-68
2023/07/05 16:06:35;;;;;;;1.40;0.77;;;20.50;99.90;;;;;;4956387;28;20208;-67
2023/07/05 16:09:02;;;;;;;1.08;0.47;;;20.30;99.90;;;;;;4955640;28;20315;-68
2023/07/05 16:11:29;;;;;;;1.67;0.60;;;20.30;99.90;;;;;;4956925;28;20208;-68
2023/07/05 16:13:55;;;;;;;1.38;0.60;;;20.20;99.90;;;;;;4956123;28;20235;-68
2023/07/05 16:16:22;;;;;;;1.15;0.63;;;20.40;99.90;;;;;;4951302;28;20204;-68
2023/07/05 16:18:49;;;;;;;1.05;0.70;;;20.60;99.90;;;;;;4956046;28;20208;-67
2023/07/05 16:21:17;;;;;;;1.48;0.70;;;20.60;99.90;;;;;;4956643;28;20208;-70
2023/07/05 16:23:44;;;;;;;1.90;1.05;;;20.80;99.90;;;;;;4954922;28;20219;-68
2023/07/05 16:26:11;;;;;;;1.02;0.50;;;20.90;99.90;;;;;;4946898;29;20212;-69
2023/07/05 16:28:38;;;;;;;1.02;0.70;;;20.70;99.90;;;;;;4940119;28;20232;-68
2023/07/05 16:31:05;;;;;;;1.88;0.60;;;20.60;99.90;;;;;;4937757;29;20213;-69
2023/07/05 16:33:33;;;;;;;2.28;0.80;;;20.60;99.90;;;;;;4937357;29;20244;-69
2023/07/05 16:36:03;;;;;;;1.17;0.70;;;20.60;99.90;;;;;;4937605;29;20212;-69
2023/07/05 16:38:31;;;;;;;1.67;0.70;;;20.60;99.90;;;;;;4936934;29;20236;-68
2023/07/05 16:40:59;;;;;;;1.10;0.60;;;20.60;99.90;;;;;;4937910;29;20652;-68
2023/07/05 16:43:26;;;;;;;2.05;0.80;;;20.70;99.90;;;;;;4938116;29;20231;-67
2023/07/05 16:45:55;;;;;;;1.98;0.80;;;20.80;99.90;;;;;;4938061;29;20208;-69
2023/07/05 16:48:22;;;;;;;2.17;0.60;;;20.80;99.90;;;;;;4937433;29;20240;-69
2023/07/05 16:50:50;;;;;;;1.02;0.65;;;20.80;99.90;;;;;;4937501;29;20244;-68
2023/07/05 16:53:18;;;;;;;2.00;1.08;;;20.90;99.90;;;;;;4937287;29;20228;-69
2023/07/05 16:55:50;;;;;;;0.93;0.60;;;20.90;99.90;;;;;;4937542;29;20209;-69
2023/07/05 16:58:17;;;;;;;1.02;0.50;;;20.90;99.90;;;;;;4937861;29;20232;-69
2023/07/05 17:00:44;;;;;;;0.93;0.57;;;20.90;99.90;;;;;;4937710;29;20230;-68
2023/07/05 17:03:11;;;;;;;3.45;0.80;;;21.10;99.90;;;;;;4937255;29;20216;-69
2023/07/05 17:05:39;;;;;;;1.63;0.63;;;21.20;99.90;;;;;;4937203;29;20568;-69
2023/07/05 17:08:08;;;;;;;1.02;0.52;;;21.30;99.90;;;;;;4936998;29;20234;-69
2023/07/05 17:10:38;;;;;;;2.60;0.75;;;21.10;99.90;;;;;;4937629;29;20236;-71
2023/07/05 17:13:06;;;;;;;1.00;0.70;;;21.10;99.90;;;;;;4936223;29;20208;-70
2023/07/05 17:15:34;;;;;;;1.08;0.65;;;21.10;99.90;;;;;;4937294;29;20580;-68
2023/07/05 17:18:01;;;;;;;3.40;0.70;;;21.20;99.90;;;;;;4937472;29;20660;-68
2023/07/05 17:20:28;;;;;;;1.65;0.80;;;21.20;99.90;;;;;;4937763;29;20260;-68
2023/07/05 17:22:55;;;;;;;2.08;0.85;;;21.30;99.90;;;;;;4937953;29;20611;-68
2023/07/05 17:25:22;;;;;;;1.67;0.75;;;21.40;99.90;;;;;;4937739;29;20223;-68
2023/07/05 17:27:49;;;;;;;1.25;0.50;;;21.40;99.90;;;;;;4938013;29;20320;-68
2023/07/05 17:30:19;;;;;;;1.58;0.80;;;21.40;99.90;;;;;;4937256;29;20240;-68
2023/07/05 17:32:47;;;;;;;1.85;0.90;;;21.30;99.90;;;;;;4937000;29;20242;-68
2023/07/05 17:35:15;;;;;;;1.30;0.50;;;21.20;99.90;;;;;;4936925;29;20327;-68
2023/07/05 17:37:43;;;;;;;1.25;0.73;;;21.20;99.90;;;;;;4937181;29;20307;-67
2023/07/05 17:40:11;;;;;;;3.85;0.65;;;20.90;99.90;;;;;;4942247;29;20295;-68
2023/07/05 17:42:39;;;;;;;1.42;0.50;;;20.60;99.90;;;;;;4952462;29;20215;-68
2023/07/05 17:45:07;;;;;;;1.83;0.60;;;20.50;99.90;;;;;;4951372;29;20636;-68
2023/07/05 17:47:35;;;;;;;1.23;0.57;;;20.30;99.90;;;;;;4953836;28;20227;-68
2023/07/05 17:50:02;;;;;;;1.48;0.70;;;20.20;99.90;;;;;;4954283;29;20208;-69
2023/07/05 17:52:29;;;;;;;1.30;0.60;;;20.20;99.90;;;;;;4954617;28;20723;-70
2023/07/05 17:54:55;;;;;;;2.47;0.70;;;20.20;99.90;;;;;;4954837;28;20235;-68
2023/07/05 17:57:22;;;;;;;1.00;0.75;;;20.20;99.90;;;;;;4949918;28;20228;-67
2023/07/05 17:59:49;;;;;;;1.65;0.52;;;20.30;99.90;;;;;;4953922;29;20214;-68
2023/07/05 18:02:16;;;;;;;1.98;0.90;;;20.40;99.90;;;;;;4954211;28;20207;-68
2023/07/05 18:04:44;;;;;;;3.92;1.00;;;20.20;99.90;;;;;;4954560;28;20211;-68
2023/07/05 18:07:11;;;;;;;1.98;0.80;;;20.10;99.90;;;;;;4953927;28;20230;-68
2023/07/05 18:09:38;;;;;;;2.13;1.05;;;19.70;99.90;;;;;;4954610;28;20578;-67
2023/07/05 18:12:05;;;;;;;2.83;1.15;;;19.40;99.90;;;;;;4954888;28;20215;-67
2023/07/05 18:14:33;;;;;;;1.23;0.85;;;19.40;99.90;;;;;;4955264;28;20235;-67
2023/07/05 18:16:59;;;;;;;1.25;0.85;;;19.30;99.90;;;;;;4955252;28;20330;-67
2023/07/05 18:19:26;;;;;;;1.20;0.80;;;19.30;99.90;;;;;;4951387;28;20668;-67
2023/07/05 18:21:54;;;;;;;1.20;0.70;;;19.20;99.90;;;;;;4953542;28;20208;-68
2023/07/05 18:24:21;;;;;;;2.15;1.35;;;19.10;99.90;;;;;;4946385;29;20204;-67
2023/07/05 18:26:52;;;;;;;7.37;0.77;;;19.00;99.90;;;;;;4954030;28;20234;-68
2023/07/05 18:29:19;;;;;;;1.23;0.70;;;18.90;99.90;;;;;;4950508;28;20200;-68
2023/07/05 18:31:46;;;;;;;1.83;0.77;;;18.90;99.90;;;;;;4952178;28;20218;-68
2023/07/05 18:34:13;;;;;;;1.83;0.80;;;19.00;99.90;;;;;;4953948;28;20242;-68
2023/07/05 18:36:39;;;;;;;1.77;0.70;;;19.10;99.90;;;;;;4954231;28;20312;-70
2023/07/05 18:39:08;;;;;;;1.13;0.75;;;19.20;99.90;;;;;;4948860;28;20215;-67
2023/07/05 18:41:35;;;;;;;1.57;0.80;;;19.20;99.90;;;;;;4954442;28;20312;-68
2023/07/05 18:44:01;;;;;;;1.03;0.77;;;19.20;99.90;;;;;;4953848;28;20231;-68
2023/07/05 18:46:28;;;;;;;1.55;0.73;;;19.30;99.90;;;;;;4953959;28;20686;-68
2023/07/05 18:48:55;;;;;;;1.00;0.80;;;19.10;99.90;;;;;;4952110;28;20213;-68
2023/07/05 18:51:22;;;;;;;2.63;1.00;;;19.10;99.90;;;;;;4954071;28;20206;-68
2023/07/05 18:53:49;;;;;;;3.15;0.77;;;19.20;99.90;;;;;;4953975;28;20318;-68
2023/07/05 18:56:20;;;;;;;2.88;0.90;;;19.30;99.90;;;;;;4954384;28;20211;-68
2023/07/05 18:58:48;;;;;;;1.13;0.70;;;19.20;99.90;;;;;;4951305;28;20248;-68
2023/07/05 19:01:17;;;;;;;2.25;1.13;;;19.40;99.90;;;;;;4956733;28;20215;-68
2023/07/05 19:03:44;;;;;;;8.23;1.10;;;19.50;99.90;;;;;;4954357;28;20682;-68
2023/07/05 19:06:13;;;;;;;2.45;1.10;;;19.40;99.90;;;;;;4953980;28;20219;-68
2023/07/05 19:08:41;;;;;;;1.58;0.80;;;19.40;99.90;;;;;;4952101;28;20224;-70
2023/07/05 19:11:11;;;;;;;4.32;0.98;;;19.30;99.90;;;;;;4948090;29;20215;-70
2023/07/05 19:13:40;;;;;;;2.67;1.15;;;19.30;99.90;;;;;;4954259;28;20226;-71
2023/07/05 19:16:08;;;;;;;2.22;0.88;;;19.20;99.90;;;;;;4965739;28;20212;-69
2023/07/05 19:18:35;;;;;;;1.35;0.70;;;19.10;99.90;;;;;;4954340;28;20224;-69
2023/07/05 19:21:03;;;;;;;1.42;0.70;;;19.20;99.90;;;;;;4953945;28;20230;-70
2023/07/05 19:23:29;;;;;;;1.67;0.60;;;19.10;99.90;;;;;;4954544;28;20211;-70
2023/07/05 19:25:58;;;;;;;1.40;0.80;;;19.10;99.90;;;;;;4954147;28;20647;-70
2023/07/05 19:28:25;;;;;;;1.25;0.60;;;19.10;99.90;;;;;;4954445;28;20232;-70
2023/07/05 19:30:55;;;;;;;2.67;1.00;;;19.00;99.90;;;;;;4954184;28;20218;-70
2023/07/05 19:33:22;;;;;;;1.25;0.73;;;18.70;99.90;;;;;;4954187;28;20681;-70
2023/07/05 19:35:51;;;;;;;6.30;2.80;;;18.50;99.90;;;;;;4956040;28;20239;-70
2023/07/05 19:38:18;;;;;;;1.00;0.88;;;18.40;99.90;;;;;;4958103;28;20698;-70
2023/07/05 19:40:49;;;;;;;4.88;2.00;;;18.30;99.90;;;;;;4957850;28;20218;-68
2023/07/05 19:43:16;;;;;;;4.38;1.48;;;18.30;99.90;;;;;;4958059;28;20271;-70
2023/07/05 19:45:43;;;;;;;2.63;1.52;;;18.20;99.90;;;;;;4957605;28;20218;-70
2023/07/05 19:48:11;;;;;;;1.60;1.05;;;18.20;99.90;;;;;;4947378;28;20225;-70
2023/07/05 19:50:38;;;;;;;2.55;0.90;;;18.10;99.90;;;;;;4955728;29;20235;-70
2023/07/05 19:53:05;;;;;;;1.25;0.80;;;18.00;99.90;;;;;;4958019;28;20204;-69
2023/07/05 19:55:32;;;;;;;1.43;1.00;;;17.90;99.90;;;;;;4957958;28;20270;-69
2023/07/05 19:58:01;;;;;;;3.43;0.90;;;17.90;99.90;;;;;;4957725;28;20235;-70
2023/07/05 20:00:29;;;;;;;1.47;0.77;;;17.70;99.90;;;;;;4957502;28;20291;-68